sensor_id;sensor_type;location;lat;lon;timestamp;temperature;humidity
52481;DHT22;38393;52.404;13.532;2023-03-23T00:02:11;10.70;86.70
52481;DHT22;38393;52.404;13.532;2023-03-23T00:04:36;10.60;86.90
52481;DHT22;38393;52.404;13.532;2023-03-23T00:07:02;10.50;87.10
52481;DHT22;38393;52.404;13.532;2023-03-23T00:09:28;10.60;87.50
52481;DHT22;38393;52.404;13.532;2023-03-23T00:11:55;10.50;87.70
52481;DHT22;38393;52.404;13.532;2023-03-23T00:14:22;10.30;87.60
52481;DHT22;38393;52.404;13.532;2023-03-23T00:16:49;10.30;88.00
52481;DHT22;38393;52.404;13.532;2023-03-23T00:19:16;10.20;88.20
52481;DHT22;38393;52.404;13.532;2023-03-23T00:21:44;10.20;88.60
52481;DHT22;38393;52.404;13.532;2023-03-23T00:24:16;10.10;88.70
52481;DHT22;38393;52.404;13.532;2023-03-23T00:26:46;10.00;89.10
52481;DHT22;38393;52.404;13.532;2023-03-23T00:29:18;10.00;89.50
52481;DHT22;38393;52.404;13.532;2023-03-23T00:31:45;9.90;90.00
52481;DHT22;38393;52.404;13.532;2023-03-23T00:34:24;9.90;89.90
52481;DHT22;38393;52.404;13.532;2023-03-23T00:36:52;9.90;89.60
52481;DHT22;38393;52.404;13.532;2023-03-23T00:39:22;9.90;90.00
52481;DHT22;38393;52.404;13.532;2023-03-23T00:41:49;9.90;90.00
52481;DHT22;38393;52.404;13.532;2023-03-23T00:44:15;10.00;89.50
52481;DHT22;38393;52.404;13.532;2023-03-23T00:46:47;9.90;89.50
52481;DHT22;38393;52.404;13.532;2023-03-23T00:49:16;9.90;89.60
52481;DHT22;38393;52.404;13.532;2023-03-23T00:51:42;9.90;89.80
52481;DHT22;38393;52.404;13.532;2023-03-23T00:54:08;9.80;90.00
52481;DHT22;38393;52.404;13.532;2023-03-23T00:56:34;9.80;90.20
52481;DHT22;38393;52.404;13.532;2023-03-23T00:59:00;9.80;90.10
52481;DHT22;38393;52.404;13.532;2023-03-23T01:01:25;9.70;90.00
52481;DHT22;38393;52.404;13.532;2023-03-23T01:03:51;9.70;90.10
52481;DHT22;38393;52.404;13.532;2023-03-23T01:06:18;9.70;90.30
52481;DHT22;38393;52.404;13.532;2023-03-23T01:08:44;9.50;90.30
52481;DHT22;38393;52.404;13.532;2023-03-23T01:11:14;9.50;90.50
52481;DHT22;38393;52.404;13.532;2023-03-23T01:13:41;9.50;90.70
52481;DHT22;38393;52.404;13.532;2023-03-23T01:16:07;9.60;90.70
52481;DHT22;38393;52.404;13.532;2023-03-23T01:18:33;9.40;90.70
52481;DHT22;38393;52.404;13.532;2023-03-23T01:21:06;9.30;90.90
52481;DHT22;38393;52.404;13.532;2023-03-23T01:23:33;9.30;91.00
52481;DHT22;38393;52.404;13.532;2023-03-23T01:26:03;9.20;91.10
52481;DHT22;38393;52.404;13.532;2023-03-23T01:28:29;9.10;91.20
52481;DHT22;38393;52.404;13.532;2023-03-23T01:31:00;9.20;91.30
52481;DHT22;38393;52.404;13.532;2023-03-23T01:33:25;9.10;91.30
52481;DHT22;38393;52.404;13.532;2023-03-23T01:35:51;9.10;91.40
52481;DHT22;38393;52.404;13.532;2023-03-23T01:38:16;9.10;91.50
52481;DHT22;38393;52.404;13.532;2023-03-23T01:40:43;9.00;91.50
52481;DHT22;38393;52.404;13.532;2023-03-23T01:43:13;8.90;91.50
52481;DHT22;38393;52.404;13.532;2023-03-23T01:45:40;9.00;91.60
52481;DHT22;38393;52.404;13.532;2023-03-23T01:50:59;9.00;91.70
52481;DHT22;38393;52.404;13.532;2023-03-23T01:53:31;9.00;91.60
52481;DHT22;38393;52.404;13.532;2023-03-23T01:55:59;8.90;91.60
52481;DHT22;38393;52.404;13.532;2023-03-23T01:58:27;8.90;91.70
52481;DHT22;38393;52.404;13.532;2023-03-23T02:00:55;9.00;91.80
52481;DHT22;38393;52.404;13.532;2023-03-23T02:03:21;9.10;91.60
52481;DHT22;38393;52.404;13.532;2023-03-23T02:05:49;9.30;91.50
52481;DHT22;38393;52.404;13.532;2023-03-23T02:08:15;9.30;91.10
52481;DHT22;38393;52.404;13.532;2023-03-23T02:10:43;9.30;91.00
52481;DHT22;38393;52.404;13.532;2023-03-23T02:13:10;9.50;90.80
52481;DHT22;38393;52.404;13.532;2023-03-23T02:15:47;9.60;90.60
52481;DHT22;38393;52.404;13.532;2023-03-23T02:18:31;9.60;90.30
52481;DHT22;38393;52.404;13.532;2023-03-23T02:21:16;9.60;90.20
52481;DHT22;38393;52.404;13.532;2023-03-23T02:27:02;9.60;90.20
52481;DHT22;38393;52.404;13.532;2023-03-23T02:29:55;9.60;90.20
52481;DHT22;38393;52.404;13.532;2023-03-23T02:35:34;9.80;89.50
52481;DHT22;38393;52.404;13.532;2023-03-23T02:38:10;9.80;89.30
52481;DHT22;38393;52.404;13.532;2023-03-23T02:40:45;9.90;89.40
52481;DHT22;38393;52.404;13.532;2023-03-23T02:43:17;10.10;88.30
52481;DHT22;38393;52.404;13.532;2023-03-23T02:45:45;10.10;88.00
52481;DHT22;38393;52.404;13.532;2023-03-23T02:48:13;10.20;87.80
52481;DHT22;38393;52.404;13.532;2023-03-23T02:50:43;10.10;87.90
52481;DHT22;38393;52.404;13.532;2023-03-23T02:53:11;10.20;87.70
52481;DHT22;38393;52.404;13.532;2023-03-23T02:55:41;10.40;87.40
52481;DHT22;38393;52.404;13.532;2023-03-23T02:58:09;10.30;87.30
52481;DHT22;38393;52.404;13.532;2023-03-23T03:00:35;10.40;86.40
52481;DHT22;38393;52.404;13.532;2023-03-23T03:03:01;10.50;85.30
52481;DHT22;38393;52.404;13.532;2023-03-23T03:11:13;10.90;83.70
52481;DHT22;38393;52.404;13.532;2023-03-23T03:13:53;10.90;83.50
52481;DHT22;38393;52.404;13.532;2023-03-23T03:16:24;10.90;84.70
52481;DHT22;38393;52.404;13.532;2023-03-23T03:21:33;11.00;84.80
52481;DHT22;38393;52.404;13.532;2023-03-23T03:24:02;11.00;84.10
52481;DHT22;38393;52.404;13.532;2023-03-23T03:26:30;11.10;84.00
52481;DHT22;38393;52.404;13.532;2023-03-23T03:28:57;11.00;84.30
52481;DHT22;38393;52.404;13.532;2023-03-23T03:31:28;11.00;84.30
52481;DHT22;38393;52.404;13.532;2023-03-23T03:33:54;11.00;84.90
52481;DHT22;38393;52.404;13.532;2023-03-23T03:36:26;11.30;82.80
52481;DHT22;38393;52.404;13.532;2023-03-23T03:38:53;11.20;83.10
52481;DHT22;38393;52.404;13.532;2023-03-23T03:41:19;11.10;84.10
52481;DHT22;38393;52.404;13.532;2023-03-23T03:43:45;11.00;84.20
52481;DHT22;38393;52.404;13.532;2023-03-23T03:46:11;11.00;84.70
52481;DHT22;38393;52.404;13.532;2023-03-23T03:48:36;11.00;85.10
52481;DHT22;38393;52.404;13.532;2023-03-23T03:51:02;11.00;85.50
52481;DHT22;38393;52.404;13.532;2023-03-23T03:53:28;11.00;85.70
52481;DHT22;38393;52.404;13.532;2023-03-23T03:55:53;11.00;85.00
52481;DHT22;38393;52.404;13.532;2023-03-23T03:58:25;11.00;84.90
52481;DHT22;38393;52.404;13.532;2023-03-23T04:00:57;11.10;85.20
52481;DHT22;38393;52.404;13.532;2023-03-23T04:03:23;11.10;85.70
52481;DHT22;38393;52.404;13.532;2023-03-23T04:05:49;11.00;86.60
52481;DHT22;38393;52.404;13.532;2023-03-23T04:08:16;10.90;87.00
52481;DHT22;38393;52.404;13.532;2023-03-23T04:10:43;10.90;87.90
52481;DHT22;38393;52.404;13.532;2023-03-23T04:13:08;10.80;88.30
52481;DHT22;38393;52.404;13.532;2023-03-23T04:15:34;10.80;88.70
52481;DHT22;38393;52.404;13.532;2023-03-23T04:17:59;10.80;89.10
52481;DHT22;38393;52.404;13.532;2023-03-23T04:20:25;10.80;90.00
52481;DHT22;38393;52.404;13.532;2023-03-23T04:22:51;10.80;90.10
52481;DHT22;38393;52.404;13.532;2023-03-23T04:25:19;10.80;90.20
52481;DHT22;38393;52.404;13.532;2023-03-23T04:27:50;10.70;90.30
52481;DHT22;38393;52.404;13.532;2023-03-23T04:30:23;10.70;90.50
52481;DHT22;38393;52.404;13.532;2023-03-23T04:32:50;10.70;90.60
52481;DHT22;38393;52.404;13.532;2023-03-23T04:35:19;10.70;90.80
52481;DHT22;38393;52.404;13.532;2023-03-23T04:37:45;10.70;91.00
52481;DHT22;38393;52.404;13.532;2023-03-23T04:40:12;10.60;91.50
52481;DHT22;38393;52.404;13.532;2023-03-23T04:42:41;10.50;92.30
52481;DHT22;38393;52.404;13.532;2023-03-23T04:45:07;10.50;92.70
52481;DHT22;38393;52.404;13.532;2023-03-23T04:47:35;10.50;93.00
52481;DHT22;38393;52.404;13.532;2023-03-23T04:50:10;10.50;92.90
52481;DHT22;38393;52.404;13.532;2023-03-23T04:52:38;10.50;92.80
52481;DHT22;38393;52.404;13.532;2023-03-23T04:55:07;10.50;92.40
52481;DHT22;38393;52.404;13.532;2023-03-23T04:57:33;10.50;92.50
52481;DHT22;38393;52.404;13.532;2023-03-23T05:00:03;10.60;92.50
52481;DHT22;38393;52.404;13.532;2023-03-23T05:02:37;10.70;92.10
52481;DHT22;38393;52.404;13.532;2023-03-23T05:05:08;10.70;91.80
52481;DHT22;38393;52.404;13.532;2023-03-23T05:07:33;10.70;91.70
52481;DHT22;38393;52.404;13.532;2023-03-23T05:09:59;10.70;91.70
52481;DHT22;38393;52.404;13.532;2023-03-23T05:12:25;10.80;91.00
52481;DHT22;38393;52.404;13.532;2023-03-23T05:14:50;10.80;91.00
52481;DHT22;38393;52.404;13.532;2023-03-23T05:17:16;10.90;90.50
52481;DHT22;38393;52.404;13.532;2023-03-23T05:19:44;11.20;89.70
52481;DHT22;38393;52.404;13.532;2023-03-23T05:22:13;11.10;88.50
52481;DHT22;38393;52.404;13.532;2023-03-23T05:24:39;11.10;87.80
52481;DHT22;38393;52.404;13.532;2023-03-23T05:27:05;11.40;85.80
52481;DHT22;38393;52.404;13.532;2023-03-23T05:29:33;11.40;85.40
52481;DHT22;38393;52.404;13.532;2023-03-23T05:32:01;11.30;86.60
52481;DHT22;38393;52.404;13.532;2023-03-23T05:34:27;11.20;87.10
52481;DHT22;38393;52.404;13.532;2023-03-23T05:36:54;11.30;87.00
52481;DHT22;38393;52.404;13.532;2023-03-23T05:39:20;11.40;85.70
52481;DHT22;38393;52.404;13.532;2023-03-23T05:41:46;11.50;85.30
52481;DHT22;38393;52.404;13.532;2023-03-23T05:44:12;11.50;85.10
52481;DHT22;38393;52.404;13.532;2023-03-23T05:46:38;11.50;87.50
52481;DHT22;38393;52.404;13.532;2023-03-23T05:49:04;11.40;88.40
52481;DHT22;38393;52.404;13.532;2023-03-23T05:51:30;11.50;88.10
52481;DHT22;38393;52.404;13.532;2023-03-23T05:53:55;11.40;89.10
52481;DHT22;38393;52.404;13.532;2023-03-23T05:56:21;11.30;89.00
52481;DHT22;38393;52.404;13.532;2023-03-23T05:58:47;11.20;90.00
52481;DHT22;38393;52.404;13.532;2023-03-23T06:01:12;11.10;90.50
52481;DHT22;38393;52.404;13.532;2023-03-23T06:03:40;11.10;90.90
52481;DHT22;38393;52.404;13.532;2023-03-23T06:06:05;11.10;90.80
52481;DHT22;38393;52.404;13.532;2023-03-23T06:08:31;11.10;91.10
52481;DHT22;38393;52.404;13.532;2023-03-23T06:10:57;11.00;91.50
52481;DHT22;38393;52.404;13.532;2023-03-23T06:13:23;11.00;92.40
52481;DHT22;38393;52.404;13.532;2023-03-23T06:15:48;10.90;92.80
52481;DHT22;38393;52.404;13.532;2023-03-23T06:18:14;10.90;93.10
52481;DHT22;38393;52.404;13.532;2023-03-23T06:20:40;10.80;93.90
52481;DHT22;38393;52.404;13.532;2023-03-23T06:23:06;10.80;94.30
52481;DHT22;38393;52.404;13.532;2023-03-23T06:25:32;10.70;95.20
52481;DHT22;38393;52.404;13.532;2023-03-23T06:27:58;10.80;95.40
52481;DHT22;38393;52.404;13.532;2023-03-23T06:30:24;10.70;96.20
52481;DHT22;38393;52.404;13.532;2023-03-23T06:32:49;10.60;96.60
52481;DHT22;38393;52.404;13.532;2023-03-23T06:35:16;10.60;97.10
52481;DHT22;38393;52.404;13.532;2023-03-23T06:37:41;10.60;97.50
52481;DHT22;38393;52.404;13.532;2023-03-23T06:40:07;10.60;97.60
52481;DHT22;38393;52.404;13.532;2023-03-23T06:42:34;10.50;98.10
52481;DHT22;38393;52.404;13.532;2023-03-23T06:45:00;10.40;98.40
52481;DHT22;38393;52.404;13.532;2023-03-23T06:47:27;10.50;98.30
52481;DHT22;38393;52.404;13.532;2023-03-23T06:49:56;10.50;98.60
52481;DHT22;38393;52.404;13.532;2023-03-23T06:52:22;10.50;98.80
52481;DHT22;38393;52.404;13.532;2023-03-23T06:54:51;10.50;99.00
52481;DHT22;38393;52.404;13.532;2023-03-23T06:57:18;10.60;98.90
52481;DHT22;38393;52.404;13.532;2023-03-23T06:59:44;10.60;98.70
52481;DHT22;38393;52.404;13.532;2023-03-23T07:02:11;10.60;98.90
52481;DHT22;38393;52.404;13.532;2023-03-23T07:04:37;10.60;99.20
52481;DHT22;38393;52.404;13.532;2023-03-23T07:07:04;10.70;99.40
52481;DHT22;38393;52.404;13.532;2023-03-23T07:09:30;10.70;98.70
52481;DHT22;38393;52.404;13.532;2023-03-23T07:11:56;10.70;98.80
52481;DHT22;38393;52.404;13.532;2023-03-23T07:14:22;10.90;98.20
52481;DHT22;38393;52.404;13.532;2023-03-23T07:16:47;10.80;98.00
52481;DHT22;38393;52.404;13.532;2023-03-23T07:19:13;10.80;97.80
52481;DHT22;38393;52.404;13.532;2023-03-23T07:21:38;10.80;98.00
52481;DHT22;38393;52.404;13.532;2023-03-23T07:24:04;10.80;97.80
52481;DHT22;38393;52.404;13.532;2023-03-23T07:26:30;10.90;97.90
52481;DHT22;38393;52.404;13.532;2023-03-23T07:28:55;10.90;98.00
52481;DHT22;38393;52.404;13.532;2023-03-23T07:31:21;10.80;97.90
52481;DHT22;38393;52.404;13.532;2023-03-23T07:33:47;10.90;98.30
52481;DHT22;38393;52.404;13.532;2023-03-23T07:36:12;10.80;98.30
52481;DHT22;38393;52.404;13.532;2023-03-23T07:38:38;10.90;98.70
52481;DHT22;38393;52.404;13.532;2023-03-23T07:41:05;10.80;98.80
52481;DHT22;38393;52.404;13.532;2023-03-23T07:43:30;10.90;98.70
52481;DHT22;38393;52.404;13.532;2023-03-23T07:45:55;10.80;98.80
52481;DHT22;38393;52.404;13.532;2023-03-23T07:48:21;10.90;98.80
52481;DHT22;38393;52.404;13.532;2023-03-23T07:50:47;11.00;98.80
52481;DHT22;38393;52.404;13.532;2023-03-23T07:53:12;11.10;98.60
52481;DHT22;38393;52.404;13.532;2023-03-23T07:55:38;11.30;98.90
52481;DHT22;38393;52.404;13.532;2023-03-23T07:58:04;11.40;98.90
52481;DHT22;38393;52.404;13.532;2023-03-23T08:00:30;11.50;98.40
52481;DHT22;38393;52.404;13.532;2023-03-23T08:02:57;11.40;98.50
52481;DHT22;38393;52.404;13.532;2023-03-23T08:05:23;11.40;98.40
52481;DHT22;38393;52.404;13.532;2023-03-23T08:07:51;11.50;98.40
52481;DHT22;38393;52.404;13.532;2023-03-23T08:10:17;11.50;98.50
52481;DHT22;38393;52.404;13.532;2023-03-23T08:12:44;11.50;98.50
52481;DHT22;38393;52.404;13.532;2023-03-23T08:15:11;11.50;98.40
52481;DHT22;38393;52.404;13.532;2023-03-23T08:17:41;11.70;97.90
52481;DHT22;38393;52.404;13.532;2023-03-23T08:20:07;11.80;97.80
52481;DHT22;38393;52.404;13.532;2023-03-23T08:22:41;11.80;96.90
52481;DHT22;38393;52.404;13.532;2023-03-23T08:25:09;11.90;97.20
52481;DHT22;38393;52.404;13.532;2023-03-23T08:27:35;11.90;97.10
52481;DHT22;38393;52.404;13.532;2023-03-23T08:30:02;12.00;96.60
52481;DHT22;38393;52.404;13.532;2023-03-23T08:32:28;12.10;96.60
52481;DHT22;38393;52.404;13.532;2023-03-23T08:34:54;12.10;96.30
52481;DHT22;38393;52.404;13.532;2023-03-23T08:37:19;12.10;95.90
52481;DHT22;38393;52.404;13.532;2023-03-23T08:39:45;12.10;96.10
52481;DHT22;38393;52.404;13.532;2023-03-23T08:42:11;12.20;96.50
52481;DHT22;38393;52.404;13.532;2023-03-23T08:44:37;12.10;95.80
52481;DHT22;38393;52.404;13.532;2023-03-23T08:47:03;12.10;95.60
52481;DHT22;38393;52.404;13.532;2023-03-23T08:49:31;12.00;95.70
52481;DHT22;38393;52.404;13.532;2023-03-23T08:51:58;12.10;95.80
52481;DHT22;38393;52.404;13.532;2023-03-23T08:54:23;12.10;95.60
52481;DHT22;38393;52.404;13.532;2023-03-23T08:56:49;12.10;95.10
52481;DHT22;38393;52.404;13.532;2023-03-23T08:59:14;12.10;95.60
52481;DHT22;38393;52.404;13.532;2023-03-23T09:01:40;12.20;95.30
52481;DHT22;38393;52.404;13.532;2023-03-23T09:04:07;12.30;95.40
52481;DHT22;38393;52.404;13.532;2023-03-23T09:06:35;12.40;95.40
52481;DHT22;38393;52.404;13.532;2023-03-23T09:09:00;12.50;95.00
52481;DHT22;38393;52.404;13.532;2023-03-23T09:11:27;12.50;94.70
52481;DHT22;38393;52.404;13.532;2023-03-23T09:13:53;12.60;94.10
52481;DHT22;38393;52.404;13.532;2023-03-23T09:16:18;12.60;94.80
52481;DHT22;38393;52.404;13.532;2023-03-23T09:18:44;12.80;93.70
52481;DHT22;38393;52.404;13.532;2023-03-23T09:21:09;12.80;93.80
52481;DHT22;38393;52.404;13.532;2023-03-23T09:23:35;12.80;93.80
52481;DHT22;38393;52.404;13.532;2023-03-23T09:26:02;12.90;93.80
52481;DHT22;38393;52.404;13.532;2023-03-23T09:28:28;13.00;93.50
52481;DHT22;38393;52.404;13.532;2023-03-23T09:30:55;13.00;92.90
52481;DHT22;38393;52.404;13.532;2023-03-23T09:33:22;13.00;92.70
52481;DHT22;38393;52.404;13.532;2023-03-23T09:35:48;12.90;92.90
52481;DHT22;38393;52.404;13.532;2023-03-23T09:38:13;13.00;93.00
52481;DHT22;38393;52.404;13.532;2023-03-23T09:40:46;13.20;92.90
52481;DHT22;38393;52.404;13.532;2023-03-23T09:43:23;13.30;92.80
52481;DHT22;38393;52.404;13.532;2023-03-23T09:46:29;13.30;92.40
52481;DHT22;38393;52.404;13.532;2023-03-23T09:48:59;13.40;92.00
52481;DHT22;38393;52.404;13.532;2023-03-23T09:51:29;13.30;91.40
52481;DHT22;38393;52.404;13.532;2023-03-23T09:54:03;13.50;92.00
52481;DHT22;38393;52.404;13.532;2023-03-23T09:56:31;13.70;91.20
52481;DHT22;38393;52.404;13.532;2023-03-23T10:01:58;14.00;90.20
52481;DHT22;38393;52.404;13.532;2023-03-23T10:04:34;14.20;88.00
52481;DHT22;38393;52.404;13.532;2023-03-23T10:07:11;14.10;87.90
52481;DHT22;38393;52.404;13.532;2023-03-23T10:09:39;14.30;88.30
52481;DHT22;38393;52.404;13.532;2023-03-23T10:12:33;14.20;86.30
52481;DHT22;38393;52.404;13.532;2023-03-23T10:17:58;14.20;85.00
52481;DHT22;38393;52.404;13.532;2023-03-23T10:20:32;14.10;85.00
52481;DHT22;38393;52.404;13.532;2023-03-23T10:23:09;14.10;84.40
52481;DHT22;38393;52.404;13.532;2023-03-23T10:25:40;14.20;85.00
52481;DHT22;38393;52.404;13.532;2023-03-23T10:28:11;14.20;83.70
52481;DHT22;38393;52.404;13.532;2023-03-23T10:30:43;14.20;83.60
52481;DHT22;38393;52.404;13.532;2023-03-23T10:35:57;14.40;82.30
52481;DHT22;38393;52.404;13.532;2023-03-23T10:38:32;14.40;82.50
52481;DHT22;38393;52.404;13.532;2023-03-23T10:41:19;14.50;81.70
52481;DHT22;38393;52.404;13.532;2023-03-23T10:43:46;14.50;81.40
52481;DHT22;38393;52.404;13.532;2023-03-23T10:46:36;14.50;80.80
52481;DHT22;38393;52.404;13.532;2023-03-23T10:49:05;14.40;80.10
52481;DHT22;38393;52.404;13.532;2023-03-23T10:51:35;14.60;81.70
52481;DHT22;38393;52.404;13.532;2023-03-23T10:54:03;14.50;80.60
52481;DHT22;38393;52.404;13.532;2023-03-23T10:56:42;14.50;80.40
52481;DHT22;38393;52.404;13.532;2023-03-23T10:59:20;14.50;81.00
52481;DHT22;38393;52.404;13.532;2023-03-23T11:01:50;14.50;80.80
52481;DHT22;38393;52.404;13.532;2023-03-23T11:04:17;14.30;80.00
52481;DHT22;38393;52.404;13.532;2023-03-23T11:06:46;14.40;80.20
52481;DHT22;38393;52.404;13.532;2023-03-23T11:09:16;14.40;79.90
52481;DHT22;38393;52.404;13.532;2023-03-23T11:11:50;14.30;78.90
52481;DHT22;38393;52.404;13.532;2023-03-23T11:17:05;14.60;78.70
52481;DHT22;38393;52.404;13.532;2023-03-23T11:19:34;14.60;79.10
52481;DHT22;38393;52.404;13.532;2023-03-23T11:22:08;14.70;78.90
52481;DHT22;38393;52.404;13.532;2023-03-23T11:24:43;14.80;78.40
52481;DHT22;38393;52.404;13.532;2023-03-23T11:27:09;14.80;79.10
52481;DHT22;38393;52.404;13.532;2023-03-23T11:29:45;14.90;77.80
52481;DHT22;38393;52.404;13.532;2023-03-23T11:32:14;15.00;75.70
52481;DHT22;38393;52.404;13.532;2023-03-23T11:34:43;14.90;76.40
52481;DHT22;38393;52.404;13.532;2023-03-23T11:37:20;15.00;77.90
52481;DHT22;38393;52.404;13.532;2023-03-23T11:39:54;15.00;75.60
52481;DHT22;38393;52.404;13.532;2023-03-23T11:42:23;15.00;76.10
52481;DHT22;38393;52.404;13.532;2023-03-23T11:44:53;15.10;74.70
52481;DHT22;38393;52.404;13.532;2023-03-23T11:47:24;15.20;74.20
52481;DHT22;38393;52.404;13.532;2023-03-23T11:50:02;15.20;75.20
52481;DHT22;38393;52.404;13.532;2023-03-23T11:52:50;15.20;73.90
52481;DHT22;38393;52.404;13.532;2023-03-23T11:55:25;15.40;73.90
52481;DHT22;38393;52.404;13.532;2023-03-23T11:57:52;15.60;73.60
52481;DHT22;38393;52.404;13.532;2023-03-23T12:00:20;15.50;72.40
52481;DHT22;38393;52.404;13.532;2023-03-23T12:06:03;15.60;72.00
52481;DHT22;38393;52.404;13.532;2023-03-23T12:08:51;15.50;71.60
52481;DHT22;38393;52.404;13.532;2023-03-23T12:11:53;15.50;72.70
52481;DHT22;38393;52.404;13.532;2023-03-23T12:14:39;15.50;71.50
52481;DHT22;38393;52.404;13.532;2023-03-23T12:20:12;15.40;69.70
52481;DHT22;38393;52.404;13.532;2023-03-23T12:23:03;15.70;70.30
52481;DHT22;38393;52.404;13.532;2023-03-23T12:25:48;15.80;68.70
52481;DHT22;38393;52.404;13.532;2023-03-23T12:28:41;15.80;69.00
52481;DHT22;38393;52.404;13.532;2023-03-23T12:31:13;15.70;68.20
52481;DHT22;38393;52.404;13.532;2023-03-23T12:34:17;15.70;69.20
52481;DHT22;38393;52.404;13.532;2023-03-23T12:37:07;15.70;68.90
52481;DHT22;38393;52.404;13.532;2023-03-23T12:42:48;15.60;67.70
52481;DHT22;38393;52.404;13.532;2023-03-23T12:45:25;15.80;68.70
52481;DHT22;38393;52.404;13.532;2023-03-23T12:47:58;15.80;67.60
52481;DHT22;38393;52.404;13.532;2023-03-23T12:51:15;15.80;68.20
52481;DHT22;38393;52.404;13.532;2023-03-23T12:53:27;15.90;66.50
52481;DHT22;38393;52.404;13.532;2023-03-23T12:56:10;16.00;67.40
52481;DHT22;38393;52.404;13.532;2023-03-23T12:58:45;15.80;66.40
52481;DHT22;38393;52.404;13.532;2023-03-23T13:01:33;15.90;67.60
52481;DHT22;38393;52.404;13.532;2023-03-23T13:04:07;15.90;67.80
52481;DHT22;38393;52.404;13.532;2023-03-23T13:06:35;16.10;66.40
52481;DHT22;38393;52.404;13.532;2023-03-23T13:11:40;15.90;65.80
52481;DHT22;38393;52.404;13.532;2023-03-23T13:14:31;16.20;64.60
52481;DHT22;38393;52.404;13.532;2023-03-23T13:20:29;16.90;63.60
52481;DHT22;38393;52.404;13.532;2023-03-23T13:23:20;16.70;61.80
52481;DHT22;38393;52.404;13.532;2023-03-23T13:26:06;16.50;62.40
52481;DHT22;38393;52.404;13.532;2023-03-23T13:36:39;16.70;61.80
52481;DHT22;38393;52.404;13.532;2023-03-23T13:39:17;16.50;61.70
52481;DHT22;38393;52.404;13.532;2023-03-23T13:44:56;16.70;62.20
52481;DHT22;38393;52.404;13.532;2023-03-23T14:03:03;16.30;60.70
52481;DHT22;38393;52.404;13.532;2023-03-23T14:08:14;16.30;61.00
52481;DHT22;38393;52.404;13.532;2023-03-23T14:13:19;16.50;61.70
52481;DHT22;38393;52.404;13.532;2023-03-23T14:15:58;16.50;59.80
52481;DHT22;38393;52.404;13.532;2023-03-23T14:18:29;16.90;59.60
52481;DHT22;38393;52.404;13.532;2023-03-23T14:20:55;17.00;58.40
52481;DHT22;38393;52.404;13.532;2023-03-23T14:23:22;17.10;59.00
52481;DHT22;38393;52.404;13.532;2023-03-23T14:25:56;17.20;59.20
52481;DHT22;38393;52.404;13.532;2023-03-23T14:28:23;17.10;58.70
52481;DHT22;38393;52.404;13.532;2023-03-23T14:30:52;17.00;59.40
52481;DHT22;38393;52.404;13.532;2023-03-23T14:33:19;16.60;61.40
52481;DHT22;38393;52.404;13.532;2023-03-23T14:35:45;16.40;60.70
52481;DHT22;38393;52.404;13.532;2023-03-23T14:38:20;16.30;62.20
52481;DHT22;38393;52.404;13.532;2023-03-23T14:40:46;16.10;62.50
52481;DHT22;38393;52.404;13.532;2023-03-23T14:43:16;16.00;63.40
52481;DHT22;38393;52.404;13.532;2023-03-23T14:45:43;15.90;63.60
52481;DHT22;38393;52.404;13.532;2023-03-23T14:48:12;15.90;62.80
52481;DHT22;38393;52.404;13.532;2023-03-23T14:50:41;15.80;63.50
52481;DHT22;38393;52.404;13.532;2023-03-23T14:53:21;15.80;63.90
52481;DHT22;38393;52.404;13.532;2023-03-23T14:55:48;15.70;64.10
52481;DHT22;38393;52.404;13.532;2023-03-23T14:58:17;15.80;63.70
52481;DHT22;38393;52.404;13.532;2023-03-23T15:00:50;15.60;64.10
52481;DHT22;38393;52.404;13.532;2023-03-23T15:03:17;15.70;64.10
52481;DHT22;38393;52.404;13.532;2023-03-23T15:05:49;15.70;64.10
52481;DHT22;38393;52.404;13.532;2023-03-23T15:08:27;15.60;65.10
52481;DHT22;38393;52.404;13.532;2023-03-23T15:13:50;15.90;64.50
52481;DHT22;38393;52.404;13.532;2023-03-23T15:16:26;16.30;63.10
52481;DHT22;38393;52.404;13.532;2023-03-23T15:19:03;16.40;61.20
52481;DHT22;38393;52.404;13.532;2023-03-23T15:24:26;16.10;63.70
52481;DHT22;38393;52.404;13.532;2023-03-23T15:26:52;15.90;62.60
52481;DHT22;38393;52.404;13.532;2023-03-23T15:29:22;15.90;62.90
52481;DHT22;38393;52.404;13.532;2023-03-23T15:31:53;15.90;63.80
52481;DHT22;38393;52.404;13.532;2023-03-23T15:34:32;15.80;62.80
52481;DHT22;38393;52.404;13.532;2023-03-23T15:37:01;15.80;63.10
52481;DHT22;38393;52.404;13.532;2023-03-23T15:39:28;15.70;62.10
52481;DHT22;38393;52.404;13.532;2023-03-23T15:41:55;15.90;62.80
52481;DHT22;38393;52.404;13.532;2023-03-23T15:44:30;16.20;62.00
52481;DHT22;38393;52.404;13.532;2023-03-23T15:47:12;16.10;60.90
52481;DHT22;38393;52.404;13.532;2023-03-23T15:49:39;16.20;59.80
52481;DHT22;38393;52.404;13.532;2023-03-23T15:52:08;16.20;59.90
52481;DHT22;38393;52.404;13.532;2023-03-23T15:54:34;16.20;59.60
52481;DHT22;38393;52.404;13.532;2023-03-23T15:56:59;16.10;60.10
52481;DHT22;38393;52.404;13.532;2023-03-23T15:59:25;16.00;60.00
52481;DHT22;38393;52.404;13.532;2023-03-23T16:01:51;16.00;60.10
52481;DHT22;38393;52.404;13.532;2023-03-23T16:04:17;16.10;59.90
52481;DHT22;38393;52.404;13.532;2023-03-23T16:06:44;15.90;60.50
52481;DHT22;38393;52.404;13.532;2023-03-23T16:09:15;15.90;61.00
52481;DHT22;38393;52.404;13.532;2023-03-23T16:11:42;15.90;61.20
52481;DHT22;38393;52.404;13.532;2023-03-23T16:14:07;15.80;61.40
52481;DHT22;38393;52.404;13.532;2023-03-23T16:16:36;15.80;61.90
52481;DHT22;38393;52.404;13.532;2023-03-23T16:19:03;15.80;60.90
52481;DHT22;38393;52.404;13.532;2023-03-23T16:21:29;15.70;60.50
52481;DHT22;38393;52.404;13.532;2023-03-23T16:23:55;15.70;61.10
52481;DHT22;38393;52.404;13.532;2023-03-23T16:26:21;15.60;61.60
52481;DHT22;38393;52.404;13.532;2023-03-23T16:28:46;15.50;61.40
52481;DHT22;38393;52.404;13.532;2023-03-23T16:31:12;15.60;61.40
52481;DHT22;38393;52.404;13.532;2023-03-23T16:33:37;15.70;61.30
52481;DHT22;38393;52.404;13.532;2023-03-23T16:36:04;15.50;62.00
52481;DHT22;38393;52.404;13.532;2023-03-23T16:38:30;15.50;62.50
52481;DHT22;38393;52.404;13.532;2023-03-23T16:40:55;15.50;62.80
52481;DHT22;38393;52.404;13.532;2023-03-23T16:43:21;15.40;63.40
52481;DHT22;38393;52.404;13.532;2023-03-23T16:45:46;15.40;63.80
52481;DHT22;38393;52.404;13.532;2023-03-23T16:48:13;15.10;64.60
52481;DHT22;38393;52.404;13.532;2023-03-23T16:50:40;15.00;65.30
52481;DHT22;38393;52.404;13.532;2023-03-23T16:53:07;14.90;66.10
52481;DHT22;38393;52.404;13.532;2023-03-23T16:55:33;14.90;66.30